Time;durP1;ratioP1;P1;durP2;ratioP2;P2;SDS_P1;SDS_P2;PMS_P1;PMS_P2;Temp;Humidity;BMP_temperature;BMP_pressure;BME280_temperature;BME280_humidity;BME280_pressure;Samples;Min_cycle;Max_cycle;Signal;HPM_P1;HPM_P2
2022/05/08 00:02:07;;;;;;;31.65;21.83;;;12.30;99.90;;;;;;5011519;28;20065;-68
2022/05/08 00:04:33;;;;;;;;;;;12.30;99.90;;;;;;5011237;28;20050;-69
2022/05/08 00:06:59;;;;;;;22.27;14.10;;;12.20;99.90;;;;;;5011157;28;19953;-68
2022/05/08 00:09:24;;;;;;;23.58;14.15;;;12.20;99.90;;;;;;5022790;28;20032;-66
2022/05/08 00:11:52;;;;;;;24.00;14.27;;;12.20;99.90;;;;;;5031530;28;20025;-65
2022/05/08 00:14:18;;;;;;;21.65;13.73;;;12.10;99.90;;;;;;5030201;28;20052;-67
2022/05/08 00:16:43;;;;;;;23.15;14.95;;;12.10;99.90;;;;;;5031638;28;20506;-66
2022/05/08 00:19:09;;;;;;;24.38;14.88;;;12.10;99.90;;;;;;5031597;28;20397;-66
2022/05/08 00:21:35;;;;;;;24.67;15.52;;;12.00;99.90;;;;;;5013386;28;20076;-67
2022/05/08 00:24:00;;;;;;;25.23;15.45;;;12.00;99.90;;;;;;5032754;28;20445;-68
2022/05/08 00:26:26;;;;;;;23.23;14.15;;;12.00;99.90;;;;;;5031688;28;20033;-67
2022/05/08 00:28:52;;;;;;;26.25;14.82;;;12.00;99.90;;;;;;5032740;28;20517;-67
2022/05/08 00:31:17;;;;;;;24.30;14.07;;;11.90;99.90;;;;;;5040437;28;20025;-66
2022/05/08 00:33:43;;;;;;;28.00;16.25;;;11.90;99.90;;;;;;5022993;28;20111;-69
2022/05/08 00:36:08;;;;;;;24.35;14.18;;;11.90;99.90;;;;;;5022952;28;20021;-68
2022/05/08 00:38:34;;;;;;;26.13;14.70;;;11.70;99.90;;;;;;5040191;28;20386;-68
2022/05/08 00:41:00;;;;;;;29.08;16.23;;;11.60;99.90;;;;;;5038870;28;20033;-67
2022/05/08 00:43:31;;;;;;;26.50;15.98;;;11.50;99.90;;;;;;5033113;28;20049;-65
2022/05/08 00:45:57;;;;;;;23.70;14.73;;;11.40;99.90;;;;;;5032799;28;20417;-66
2022/05/08 00:48:22;;;;;;;23.67;14.75;;;11.30;99.90;;;;;;5032551;28;20024;-66
2022/05/08 00:50:50;;;;;;;24.90;15.38;;;11.20;99.90;;;;;;5032361;28;20028;-66
2022/05/08 00:53:16;;;;;;;27.05;15.05;;;11.00;99.90;;;;;;5032283;28;20402;-66
2022/05/08 00:55:41;;;;;;;27.65;15.75;;;11.00;99.90;;;;;;5014690;28;20021;-67
2022/05/08 00:58:07;;;;;;;25.75;15.25;;;10.90;99.90;;;;;;5032422;28;20028;-68
2022/05/08 01:00:33;;;;;;;25.90;14.68;;;10.90;99.90;;;;;;5030990;28;20021;-66
2022/05/08 01:02:59;;;;;;;27.23;14.48;;;10.80;99.90;;;;;;5030985;28;20485;-66
2022/05/08 01:05:25;;;;;;;22.40;14.35;;;10.70;99.90;;;;;;5031983;28;20043;-67
2022/05/08 01:07:51;;;;;;;23.48;14.45;;;10.70;99.90;;;;;;5032297;28;20022;-67
2022/05/08 01:10:17;;;;;;;25.73;16.00;;;10.70;99.90;;;;;;5032133;28;20047;-68
2022/05/08 01:12:45;;;;;;;25.45;15.23;;;10.70;99.90;;;;;;5032218;28;20474;-67
2022/05/08 01:15:16;;;;;;;28.65;15.95;;;10.60;99.90;;;;;;5031809;28;20017;-67
2022/05/08 01:17:42;;;;;;;29.45;16.23;;;10.60;99.90;;;;;;5014548;28;20032;-69
2022/05/08 01:20:08;;;;;;;27.50;15.18;;;10.60;99.90;;;;;;5032167;28;20021;-67
2022/05/08 01:22:33;;;;;;;28.60;15.75;;;10.60;99.90;;;;;;5031871;28;20030;-67
2022/05/08 01:25:03;;;;;;;27.52;15.23;;;10.60;99.90;;;;;;5031832;28;20037;-68
2022/05/08 01:27:28;;;;;;;26.83;15.30;;;10.60;99.90;;;;;;5032867;28;20021;-69
2022/05/08 01:29:54;;;;;;;24.95;14.77;;;10.70;99.90;;;;;;5036924;28;20025;-66
2022/05/08 01:32:20;;;;;;;27.90;15.38;;;10.60;99.90;;;;;;5036066;28;20172;-66
2022/05/08 01:34:45;;;;;;;26.25;14.23;;;10.70;99.90;;;;;;5036521;28;20033;-67
2022/05/08 01:37:11;;;;;;;24.83;14.50;;;10.70;99.90;;;;;;5036051;28;20093;-67
2022/05/08 01:39:37;;;;;;;26.63;15.52;;;10.70;99.90;;;;;;5036233;28;20021;-67
2022/05/08 01:42:06;;;;;;;27.83;15.88;;;10.80;99.90;;;;;;5035989;28;20038;-67
2022/05/08 01:44:32;;;;;;;25.48;15.15;;;10.80;99.90;;;;;;5035621;28;20111;-66
2022/05/08 01:49:41;;;;;;;27.45;15.30;;;10.80;99.90;;;;;;5035746;28;20032;-67
2022/05/08 01:52:08;;;;;;;30.58;15.32;;;10.80;99.90;;;;;;5035360;28;20029;-66
2022/05/08 01:54:34;;;;;;;27.88;14.95;;;10.80;99.90;;;;;;5035157;28;20025;-67
2022/05/08 01:56:59;;;;;;;26.20;14.95;;;10.80;99.90;;;;;;5017804;28;20033;-67
2022/05/08 01:59:25;;;;;;;24.80;14.98;;;10.80;99.90;;;;;;5035458;28;20052;-67
2022/05/08 02:01:51;;;;;;;27.65;15.07;;;10.70;99.90;;;;;;5035287;28;20018;-67
2022/05/08 02:04:17;;;;;;;26.52;15.82;;;10.70;99.90;;;;;;5017253;28;20516;-67
2022/05/08 02:06:43;;;;;;;28.65;15.23;;;10.60;99.90;;;;;;5035224;28;20493;-66
2022/05/08 02:09:09;;;;;;;26.38;14.82;;;10.60;99.90;;;;;;5035316;28;20021;-67
2022/05/08 02:11:34;;;;;;;27.60;14.63;;;10.60;99.90;;;;;;5035324;28;20025;-67
2022/05/08 02:14:01;;;;;;;30.30;15.13;;;10.60;99.90;;;;;;5034944;28;20083;-67
2022/05/08 02:16:27;;;;;;;24.42;13.98;;;10.60;99.90;;;;;;5035139;28;20056;-67
2022/05/08 02:18:52;;;;;;;24.58;14.15;;;10.50;99.90;;;;;;5034971;28;20056;-67
2022/05/08 02:21:18;;;;;;;23.75;14.25;;;10.50;99.90;;;;;;5035104;28;20022;-67
2022/05/08 02:23:43;;;;;;;26.80;14.20;;;10.60;99.90;;;;;;5034710;28;20397;-67
2022/05/08 02:26:09;;;;;;;24.17;13.85;;;10.50;99.90;;;;;;5035190;28;20038;-67
2022/05/08 02:28:34;;;;;;;26.20;14.35;;;10.50;99.90;;;;;;5035164;28;20017;-67
2022/05/08 02:31:00;;;;;;;28.55;13.70;;;10.60;99.90;;;;;;5034790;28;20025;-66
2022/05/08 02:33:26;;;;;;;26.25;13.82;;;10.60;99.90;;;;;;5033359;28;20048;-67
2022/05/08 02:35:51;;;;;;;30.60;14.13;;;10.60;99.90;;;;;;5034440;28;20053;-67
2022/05/08 02:38:17;;;;;;;29.63;13.82;;;10.50;99.90;;;;;;5016897;28;20033;-67
2022/05/08 02:40:43;;;;;;;27.75;13.57;;;10.50;99.90;;;;;;5034850;28;20021;-67
2022/05/08 02:43:08;;;;;;;29.17;15.95;;;10.50;99.90;;;;;;5017349;28;20036;-67
2022/05/08 02:45:34;;;;;;;26.02;12.07;;;10.50;99.90;;;;;;5034933;28;20402;-67
2022/05/08 02:47:59;;;;;;;26.33;13.93;;;10.50;99.90;;;;;;5034972;28;20513;-67
2022/05/08 02:50:26;;;;;;;30.15;13.00;;;10.50;99.90;;;;;;5016842;28;20627;-67
2022/05/08 02:52:51;;;;;;;25.13;12.90;;;10.50;99.90;;;;;;5034832;28;20052;-68
2022/05/08 03:00:47;;;;;;;32.72;13.15;;;10.50;99.90;;;;;;5034279;28;20528;-67
2022/05/08 03:03:13;;;;;;;26.40;13.65;;;10.50;99.90;;;;;;5034251;28;20431;-67
2022/05/08 03:05:47;;;;;;;27.08;12.85;;;10.40;99.90;;;;;;5017172;28;20482;-67
2022/05/08 03:08:17;;;;;;;27.45;12.02;;;10.40;99.90;;;;;;5035434;28;20052;-69
2022/05/08 03:13:28;;;;;;;26.83;12.98;;;10.40;99.90;;;;;;5034509;28;20086;-67
2022/05/08 03:15:53;;;;;;;27.75;11.52;;;10.30;99.90;;;;;;5034697;28;20025;-68
2022/05/08 03:18:19;;;;;;;25.73;11.45;;;10.30;99.90;;;;;;5035485;28;20156;-70
2022/05/08 03:20:45;;;;;;;30.45;12.30;;;10.30;99.90;;;;;;5041492;28;20032;-68
2022/05/08 03:23:10;;;;;;;27.15;11.35;;;10.30;99.90;;;;;;5024542;28;20040;-68
2022/05/08 03:25:36;;;;;;;28.83;11.52;;;10.30;99.90;;;;;;5043123;28;20025;-68
2022/05/08 03:28:03;;;;;;;27.33;12.63;;;10.20;99.90;;;;;;5026477;28;20022;-68
2022/05/08 03:30:28;;;;;;;26.08;11.40;;;10.30;99.90;;;;;;5044456;28;20496;-68
2022/05/08 03:32:58;;;;;;;30.92;11.68;;;10.20;99.90;;;;;;5039188;28;20025;-67
2022/05/08 03:35:24;;;;;;;35.33;12.23;;;10.20;99.90;;;;;;5037216;28;20437;-69
2022/05/08 03:37:50;;;;;;;28.00;11.80;;;10.10;99.90;;;;;;5041369;28;20485;-69
2022/05/08 03:40:16;;;;;;;27.10;11.13;;;10.20;99.90;;;;;;5042085;28;20037;-68
2022/05/08 03:42:42;;;;;;;30.25;11.77;;;10.20;99.90;;;;;;5041781;28;20021;-68
2022/05/08 03:45:08;;;;;;;28.63;11.20;;;10.30;99.90;;;;;;5043077;28;20025;-67
2022/05/08 03:47:34;;;;;;;30.33;11.27;;;10.20;99.90;;;;;;5044560;28;20022;-69
2022/05/08 03:50:00;;;;;;;25.85;11.40;;;10.20;99.90;;;;;;5041580;28;20497;-69
2022/05/08 03:52:25;;;;;;;26.77;12.30;;;10.20;99.90;;;;;;5042177;28;20128;-68
2022/05/08 03:54:51;;;;;;;30.23;12.13;;;10.20;99.90;;;;;;5044518;28;20025;-68
2022/05/08 03:57:17;;;;;;;27.55;10.98;;;10.10;99.90;;;;;;5029385;28;20022;-69
2022/05/08 03:59:42;;;;;;;34.88;12.65;;;10.10;99.90;;;;;;5049960;28;20032;-68
2022/05/08 04:02:08;;;;;;;24.45;11.23;;;10.20;99.90;;;;;;5050625;28;20036;-70
2022/05/08 04:04:35;;;;;;;27.83;11.32;;;10.10;99.90;;;;;;5048504;28;20029;-70
2022/05/08 04:07:00;;;;;;;23.55;9.90;;;10.20;99.90;;;;;;5048264;28;20021;-69
2022/05/08 04:09:27;;;;;;;29.23;10.82;;;10.20;99.90;;;;;;5018211;28;20077;-68
2022/05/08 04:11:53;;;;;;;25.23;10.93;;;10.20;99.90;;;;;;5033262;28;20138;-67
2022/05/08 04:14:19;;;;;;;32.08;12.10;;;10.20;99.90;;;;;;5015158;28;20124;-68
2022/05/08 04:16:46;;;;;;;25.23;10.68;;;10.10;99.90;;;;;;5033377;28;20033;-67
2022/05/08 04:19:12;;;;;;;25.23;11.55;;;10.10;99.90;;;;;;5015243;28;20486;-68
2022/05/08 04:21:37;;;;;;;25.00;11.13;;;10.20;99.90;;;;;;5033284;28;20026;-68
2022/05/08 04:24:18;;;;;;;23.67;10.32;;;10.20;99.90;;;;;;5032572;28;20382;-68
2022/05/08 04:26:44;;;;;;;26.35;11.25;;;10.20;99.90;;;;;;5032870;28;20029;-67
2022/05/08 04:29:10;;;;;;;25.95;10.43;;;10.20;99.90;;;;;;5032876;28;20033;-67
2022/05/08 04:31:36;;;;;;;30.70;11.20;;;10.20;99.90;;;;;;5032646;28;20401;-67
2022/05/08 04:34:02;;;;;;;25.10;10.20;;;10.30;99.90;;;;;;5032411;28;20026;-69
2022/05/08 04:36:29;;;;;;;31.88;13.35;;;10.30;99.90;;;;;;5032536;28;20032;-67
2022/05/08 04:38:54;;;;;;;27.55;11.50;;;10.30;99.90;;;;;;5032473;28;20026;-68
2022/05/08 04:41:20;;;;;;;29.10;13.10;;;10.20;99.90;;;;;;5032495;28;20080;-67
2022/05/08 04:43:45;;;;;;;27.48;10.63;;;10.20;99.90;;;;;;5032430;28;20041;-67
2022/05/08 04:46:12;;;;;;;25.15;10.02;;;10.30;99.90;;;;;;5014698;28;20478;-67
2022/05/08 04:48:39;;;;;;;27.65;10.55;;;10.30;99.90;;;;;;5032393;28;20108;-67
2022/05/08 04:51:08;;;;;;;26.00;11.25;;;10.30;99.90;;;;;;5032187;28;20026;-67
2022/05/08 04:53:33;;;;;;;27.88;11.68;;;10.30;99.90;;;;;;5031936;28;20053;-67
2022/05/08 04:55:59;;;;;;;27.58;12.63;;;10.40;99.90;;;;;;5032083;28;20022;-67
2022/05/08 04:58:29;;;;;;;29.52;11.68;;;10.40;99.90;;;;;;5032258;28;20382;-67
2022/05/08 05:00:57;;;;;;;23.50;10.40;;;10.40;99.90;;;;;;5032215;28;20022;-68
2022/05/08 05:03:24;;;;;;;;;;;10.40;99.90;;;;;;5031614;28;20025;-67
2022/05/08 05:05:49;;;;;;;27.65;13.10;;;10.40;99.90;;;;;;5032323;28;19913;-67
2022/05/08 05:08:15;;;;;;;26.90;10.77;;;10.40;99.90;;;;;;5032032;28;20553;-67
2022/05/08 05:10:40;;;;;;;25.98;11.75;;;10.40;99.90;;;;;;5032126;28;20026;-66
2022/05/08 05:13:06;;;;;;;21.95;10.43;;;10.30;99.90;;;;;;5032015;28;20398;-69
2022/05/08 05:15:32;;;;;;;29.20;11.77;;;10.40;99.90;;;;;;5032001;28;20026;-67
2022/05/08 05:18:01;;;;;;;26.85;10.30;;;10.50;99.90;;;;;;5032136;28;20072;-68
2022/05/08 05:20:27;;;;;;;21.65;10.30;;;10.30;99.90;;;;;;5031884;28;20393;-67
2022/05/08 05:22:52;;;;;;;23.25;9.70;;;10.40;99.90;;;;;;5032005;28;20026;-67
2022/05/08 05:25:18;;;;;;;24.98;10.63;;;10.60;99.90;;;;;;5031915;28;20144;-68
2022/05/08 05:27:43;;;;;;;24.83;10.38;;;10.70;99.90;;;;;;5032126;28;20099;-68
2022/05/08 05:30:10;;;;;;;25.33;10.30;;;10.80;99.90;;;;;;5031880;28;20030;-69
2022/05/08 05:32:35;;;;;;;22.17;9.43;;;10.90;99.90;;;;;;5031787;28;20462;-68
2022/05/08 05:35:01;;;;;;;21.17;10.80;;;10.80;99.90;;;;;;5031583;28;20075;-67
2022/05/08 05:37:27;;;;;;;25.27;10.13;;;10.80;99.90;;;;;;5031861;28;20543;-68
2022/05/08 05:39:52;;;;;;;28.17;10.30;;;10.60;99.90;;;;;;5031594;28;20034;-68
2022/05/08 05:42:18;;;;;;;21.98;10.30;;;10.60;99.90;;;;;;5032005;28;20079;-66
2022/05/08 05:44:43;;;;;;;26.15;11.57;;;10.60;99.90;;;;;;5031909;28;20026;-66
2022/05/08 05:49:53;;;;;;;21.20;9.63;;;10.60;99.90;;;;;;5031941;28;20108;-67
2022/05/08 05:52:18;;;;;;;27.17;10.48;;;10.60;99.90;;;;;;5031658;28;20163;-67
2022/05/08 05:54:44;;;;;;;29.00;10.63;;;10.50;99.90;;;;;;5031323;28;20022;-68
2022/05/08 05:57:10;;;;;;;22.15;10.13;;;10.30;99.90;;;;;;5031793;28;20025;-68
2022/05/08 05:59:36;;;;;;;25.70;12.57;;;10.30;99.90;;;;;;5031504;28;20524;-67
2022/05/08 06:02:01;;;;;;;20.70;10.35;;;10.20;99.90;;;;;;5031573;28;20021;-67
2022/05/08 06:04:27;;;;;;;25.58;10.00;;;10.10;99.90;;;;;;5031370;28;20028;-67
2022/05/08 06:06:53;;;;;;;24.92;9.93;;;10.20;99.90;;;;;;5031856;28;20057;-68
2022/05/08 06:09:18;;;;;;;22.98;10.45;;;10.20;99.90;;;;;;5013780;28;20475;-67
2022/05/08 06:11:44;;;;;;;24.58;10.85;;;10.20;99.90;;;;;;5031482;28;20727;-67
2022/05/08 06:14:10;;;;;;;27.83;12.95;;;10.20;99.90;;;;;;5032091;28;20136;-66
2022/05/08 06:16:36;;;;;;;23.63;13.23;;;10.20;99.90;;;;;;5034923;28;20032;-67
2022/05/08 06:19:02;;;;;;;23.45;11.15;;;10.20;99.90;;;;;;5034667;28;20423;-67
2022/05/08 06:21:27;;;;;;;24.10;10.15;;;10.10;99.90;;;;;;5034973;28;20037;-66
2022/05/08 06:23:54;;;;;;;20.65;10.05;;;10.10;99.90;;;;;;5054349;22;20024;-64
2022/05/08 06:26:20;;;;;;;22.77;9.45;;;10.20;99.90;;;;;;5073532;28;20034;-66
2022/05/08 06:28:45;;;;;;;23.63;10.20;;;10.20;99.90;;;;;;5073925;28;20177;-66
2022/05/08 06:31:15;;;;;;;26.33;9.63;;;10.10;99.90;;;;;;5055771;28;20025;-65
2022/05/08 06:33:42;;;;;;;21.73;9.15;;;10.30;99.90;;;;;;5057139;28;20033;-66
2022/05/08 06:36:08;;;;;;;25.17;9.32;;;10.40;99.90;;;;;;5075626;28;20070;-66
2022/05/08 06:38:34;;;;;;;26.95;9.55;;;10.60;99.90;;;;;;5075840;28;20073;-65
2022/05/08 06:40:59;;;;;;;25.38;10.35;;;10.70;99.90;;;;;;5093558;28;20454;-65
2022/05/08 06:43:25;;;;;;;24.60;10.00;;;10.70;99.90;;;;;;5093772;28;20028;-66
2022/05/08 06:45:51;;;;;;;27.55;11.20;;;10.80;99.90;;;;;;5093279;28;20020;-66
2022/05/08 06:48:16;;;;;;;25.10;10.90;;;10.90;99.90;;;;;;5075663;28;20032;-66
2022/05/08 06:50:43;;;;;;;24.23;10.10;;;10.90;99.90;;;;;;5093276;28;20020;-65
2022/05/08 06:53:08;;;;;;;22.13;9.88;;;11.00;99.90;;;;;;5093514;28;20105;-66
2022/05/08 06:55:35;;;;;;;23.50;10.73;;;11.10;99.90;;;;;;5093254;28;20585;-66
2022/05/08 06:58:01;;;;;;;21.75;10.27;;;11.10;99.90;;;;;;5093372;28;20016;-66
2022/05/08 07:03:11;;;;;;;23.77;10.50;;;11.20;99.90;;;;;;5093448;28;20026;-66
2022/05/08 07:05:40;;;;;;;23.67;9.38;;;11.20;99.90;;;;;;5093211;28;20111;-65
2022/05/08 07:08:06;;;;;;;24.05;10.38;;;11.10;99.90;;;;;;5093099;28;20070;-66
2022/05/08 07:10:32;;;;;;;20.83;10.60;;;11.30;99.90;;;;;;5093326;28;20050;-66
2022/05/08 07:12:58;;;;;;;23.42;10.48;;;11.40;99.90;;;;;;5075047;28;20024;-65
2022/05/08 07:15:24;;;;;;;21.65;10.02;;;11.50;99.90;;;;;;5074826;28;20012;-66
2022/05/08 07:17:49;;;;;;;19.42;9.10;;;11.50;99.90;;;;;;5093008;28;20028;-66
2022/05/08 07:20:15;;;;;;;20.52;9.30;;;11.60;99.90;;;;;;5093146;28;20020;-63
2022/05/08 07:22:40;;;;;;;23.92;10.10;;;11.70;99.90;;;;;;5074913;28;20499;-66
2022/05/08 07:25:06;;;;;;;25.15;11.05;;;11.70;99.90;;;;;;5091882;28;20032;-66
2022/05/08 07:27:36;;;;;;;20.73;8.82;;;11.70;99.90;;;;;;5092728;28;20031;-67
2022/05/08 07:30:03;;;;;;;21.73;9.82;;;11.70;99.90;;;;;;5092844;28;20025;-66
2022/05/08 07:32:29;;;;;;;25.85;10.80;;;11.80;99.90;;;;;;5092673;28;20081;-66
2022/05/08 07:37:39;;;;;;;19.23;9.57;;;11.80;99.90;;;;;;5092843;28;20027;-65
2022/05/08 07:40:05;;;;;;;22.65;9.35;;;12.00;99.90;;;;;;5074289;28;20023;-66
2022/05/08 07:42:31;;;;;;;18.80;9.18;;;12.10;99.90;;;;;;5074086;28;20024;-65
2022/05/08 07:44:56;;;;;;;23.60;9.70;;;12.20;99.90;;;;;;5092422;28;20365;-66
2022/05/08 07:47:22;;;;;;;21.35;8.63;;;12.30;99.90;;;;;;5092492;28;20449;-66
2022/05/08 07:49:47;;;;;;;22.30;9.90;;;12.50;99.90;;;;;;5092423;28;20032;-67
2022/05/08 07:52:13;;;;;;;21.02;9.80;;;12.50;99.90;;;;;;5092399;28;20028;-68
2022/05/08 07:54:39;;;;;;;21.13;9.38;;;12.60;99.90;;;;;;5092281;28;20169;-66
2022/05/08 07:57:04;;;;;;;22.33;9.02;;;12.60;99.90;;;;;;5074065;28;20023;-66
2022/05/08 07:59:30;;;;;;;20.92;9.02;;;12.60;99.90;;;;;;5074097;28;20070;-67
2022/05/08 08:01:55;;;;;;;23.55;10.25;;;12.60;99.90;;;;;;5092228;28;20027;-66
2022/05/08 08:04:21;;;;;;;22.25;9.80;;;12.60;99.90;;;;;;5091963;28;20520;-67
2022/05/08 08:06:46;;;;;;;25.83;10.70;;;12.50;99.90;;;;;;5073993;28;20074;-67
2022/05/08 08:09:12;;;;;;;25.08;9.60;;;12.60;99.90;;;;;;5092141;28;20031;-67
2022/05/08 08:11:42;;;;;;;22.17;10.35;;;12.50;99.90;;;;;;5092107;28;20516;-67
2022/05/08 08:14:07;;;;;;;28.40;10.00;;;12.50;99.90;;;;;;5091732;28;20038;-67
2022/05/08 08:16:33;;;;;;;23.70;9.32;;;12.80;99.90;;;;;;5092051;28;20024;-67
2022/05/08 08:19:00;;;;;;;25.60;9.90;;;12.90;99.90;;;;;;5091922;28;20017;-67
2022/05/08 08:21:25;;;;;;;22.48;9.45;;;12.90;99.90;;;;;;5091964;28;20391;-66
2022/05/08 08:23:51;;;;;;;21.80;9.48;;;13.20;99.90;;;;;;5091645;28;20026;-67
2022/05/08 08:26:18;;;;;;;20.88;9.18;;;13.10;99.90;;;;;;5073536;28;20058;-67
2022/05/08 08:28:44;;;;;;;23.60;9.60;;;13.30;99.90;;;;;;5091624;28;20488;-66
2022/05/08 08:31:11;;;;;;;23.30;9.90;;;13.40;99.90;;;;;;4738352;28;10000526;-66
2022/05/08 08:33:40;;;;;;;22.83;9.88;;;13.40;99.90;;;;;;5064473;28;20056;-65
2022/05/08 08:36:09;;;;;;;23.13;11.30;;;13.50;99.90;;;;;;5079976;28;20046;-66
2022/05/08 08:38:36;;;;;;;19.85;9.93;;;13.70;99.90;;;;;;5077126;28;20024;-66
2022/05/08 08:41:04;;;;;;;22.00;9.73;;;13.80;99.90;;;;;;5081324;28;20021;-65
2022/05/08 08:47:42;;;;;;;25.57;10.83;;;14.10;99.90;;;;;;5079075;28;20496;-67
2022/05/08 08:49:07;;;;;;;22.25;10.20;;;14.50;99.90;;;;;;5078322;28;20724;-67
2022/05/08 08:51:34;;;;;;;24.23;11.20;;;14.60;99.90;;;;;;5068014;28;20038;-67
2022/05/08 08:54:00;;;;;;;25.85;12.02;;;14.50;99.90;;;;;;5062486;28;20110;-67
2022/05/08 08:56:27;;;;;;;23.20;11.15;;;14.10;99.90;;;;;;5067348;28;20396;-67
2022/05/08 08:58:55;;;;;;;21.63;10.40;;;14.30;99.90;;;;;;5077710;28;20484;-67
2022/05/08 09:01:21;;;;;;;23.10;10.93;;;14.30;99.90;;;;;;5065075;28;20020;-67
2022/05/08 09:03:47;;;;;;;21.83;10.25;;;14.70;99.90;;;;;;5073150;28;20100;-67
2022/05/08 09:06:12;;;;;;;21.60;10.98;;;14.90;99.90;;;;;;5078254;28;20103;-67
2022/05/08 09:08:38;;;;;;;21.38;10.52;;;15.20;99.90;;;;;;5050875;28;20029;-67
2022/05/08 09:11:03;;;;;;;20.60;10.07;;;15.50;99.90;;;;;;5069873;28;20047;-67
2022/05/08 09:13:31;;;;;;;25.40;16.25;;;15.70;99.90;;;;;;5070340;28;20472;-66
2022/05/08 09:16:01;;;;;;;21.75;10.02;;;15.50;99.90;;;;;;4703633;28;9999652;-67
2022/05/08 09:18:28;;;;;;;17.95;9.88;;;15.80;99.90;;;;;;5050700;28;20054;-67
2022/05/08 09:20:57;;;;;;;19.30;10.05;;;15.90;99.60;;;;;;5068224;28;20050;-67
2022/05/08 09:23:23;;;;;;;22.23;10.75;;;15.60;99.80;;;;;;5068650;28;20508;-66
2022/05/08 09:26:02;;;;;;;19.98;9.77;;;15.80;99.70;;;;;;5068500;28;20419;-67
2022/05/08 09:28:34;;;;;;;20.60;9.60;;;15.90;99.50;;;;;;5082971;28;20088;-66
2022/05/08 09:30:59;;;;;;;26.15;14.50;;;16.20;98.50;;;;;;5088233;28;20089;-67
2022/05/08 09:33:31;;;;;;;21.40;11.18;;;16.30;98.00;;;;;;5084718;28;20036;-68
2022/05/08 09:35:59;;;;;;;21.73;10.63;;;16.60;97.90;;;;;;5088418;28;20043;-67
2022/05/08 09:38:45;;;;;;;20.77;9.65;;;16.60;97.50;;;;;;5088640;28;20021;-68
2022/05/08 09:41:12;;;;;;;20.45;10.13;;;15.80;96.30;;;;;;5088325;28;20036;-67
2022/05/08 09:43:40;;;;;;;22.30;10.30;;;15.70;96.40;;;;;;5088285;28;20077;-67
2022/05/08 09:46:06;;;;;;;21.98;10.10;;;15.50;96.60;;;;;;5090198;28;20024;-68
2022/05/08 09:48:33;;;;;;;20.00;9.82;;;15.40;97.20;;;;;;5090042;28;20484;-66
2022/05/08 09:51:01;;;;;;;20.23;10.02;;;15.20;96.90;;;;;;5076350;28;20024;-67
2022/05/08 09:53:28;;;;;;;23.15;9.88;;;15.00;96.60;;;;;;5094665;28;20111;-65
2022/05/08 09:55:55;;;;;;;21.52;9.85;;;15.20;96.90;;;;;;5094480;28;20080;-66
2022/05/08 09:58:22;;;;;;;20.13;9.85;;;15.40;97.50;;;;;;5094408;28;20024;-67
2022/05/08 10:00:51;;;;;;;21.17;10.77;;;15.60;96.90;;;;;;5094534;28;20233;-65
2022/05/08 10:03:18;;;;;;;18.35;9.07;;;15.60;97.00;;;;;;5076076;28;20024;-66
2022/05/08 10:05:44;;;;;;;19.60;9.50;;;15.60;96.20;;;;;;5075870;28;20036;-67
2022/05/08 10:08:12;;;;;;;18.77;9.75;;;15.70;97.10;;;;;;5076215;28;20028;-64
2022/05/08 10:17:02;;;;;;;23.77;9.98;;;16.10;96.60;;;;;;5038286;28;20025;-65
2022/05/08 10:19:27;;;;;;;18.88;9.00;;;16.10;95.70;;;;;;5075636;28;20020;-66
2022/05/08 10:21:56;;;;;;;20.65;10.27;;;16.00;96.10;;;;;;5093973;28;20020;-66
2022/05/08 10:24:33;;;;;;;20.67;10.13;;;16.20;96.50;;;;;;5093468;28;20036;-66
2022/05/08 10:27:18;;;;;;;20.08;9.75;;;16.40;96.00;;;;;;5075793;28;20024;-68
2022/05/08 10:29:50;;;;;;;18.85;10.32;;;16.50;95.80;;;;;;5075636;28;20055;-68
2022/05/08 10:32:28;;;;;;;18.73;10.40;;;16.50;95.50;;;;;;5093630;28;20078;-66
2022/05/08 10:35:10;;;;;;;20.70;9.95;;;16.50;95.50;;;;;;5090537;28;20418;-65
2022/05/08 10:37:40;;;;;;;21.00;10.88;;;16.80;95.60;;;;;;5072344;28;20047;-64
2022/05/08 10:40:24;;;;;;;23.17;11.05;;;16.90;95.00;;;;;;5075040;28;20023;-59
2022/05/08 10:42:58;;;;;;;21.77;10.07;;;16.90;94.90;;;;;;5093829;28;20039;-57
2022/05/08 10:45:33;;;;;;;20.05;10.43;;;17.00;94.80;;;;;;5093250;28;20016;-53
2022/05/08 10:48:18;;;;;;;19.38;10.07;;;17.10;94.80;;;;;;5093366;28;20073;-58
2022/05/08 10:50:47;;;;;;;21.77;10.38;;;16.90;93.90;;;;;;5093417;28;20024;-57
2022/05/08 10:53:19;;;;;;;;;;;16.80;93.70;;;;;;5079640;28;20066;-57
2022/05/08 10:55:44;;;;;;;19.10;10.27;;;16.70;94.30;;;;;;5073023;28;19904;-60
2022/05/08 10:58:10;;;;;;;22.98;11.10;;;17.00;94.30;;;;;;5073031;28;20032;-59
2022/05/08 11:00:36;;;;;;;20.92;10.30;;;17.20;94.60;;;;;;5072478;28;20023;-59
2022/05/08 11:03:02;;;;;;;18.58;9.93;;;17.20;93.10;;;;;;5072459;28;20111;-61
2022/05/08 11:05:29;;;;;;;24.67;13.73;;;17.20;92.30;;;;;;5072753;28;20029;-65
2022/05/08 11:08:00;;;;;;;21.05;13.63;;;17.40;92.60;;;;;;5072948;28;20043;-65
2022/05/08 11:10:34;;;;;;;21.30;12.95;;;17.70;92.70;;;;;;5088207;28;20069;-59
2022/05/08 11:13:11;;;;;;;21.40;12.40;;;18.50;92.00;;;;;;5093206;28;20081;-59
2022/05/08 11:15:50;;;;;;;25.38;10.27;;;19.80;90.50;;;;;;5092940;28;20054;-57
2022/05/08 11:18:17;;;;;;;18.88;11.15;;;20.80;85.80;;;;;;5093205;28;20020;-60
2022/05/08 11:20:45;;;;;;;20.77;10.90;;;21.80;83.20;;;;;;5091717;28;20017;-59
2022/05/08 11:23:15;;;;;;;24.83;12.87;;;22.20;82.20;;;;;;5072080;28;20039;-58
2022/05/08 11:25:45;;;;;;;20.73;10.52;;;23.00;81.10;;;;;;5071500;28;20036;-61
2022/05/08 11:28:16;;;;;;;20.13;10.90;;;23.20;76.80;;;;;;5071401;28;20024;-61
2022/05/08 11:30:44;;;;;;;18.30;9.70;;;23.70;74.70;;;;;;5072753;28;20400;-57
2022/05/08 11:36:06;;;;;;;19.20;10.85;;;23.90;73.50;;;;;;5092977;28;20035;-60
2022/05/08 11:38:41;;;;;;;21.52;13.10;;;24.30;69.90;;;;;;5074728;28;20016;-61
2022/05/08 11:41:16;;;;;;;22.13;11.85;;;24.20;69.80;;;;;;5092723;28;20464;-60
2022/05/08 11:43:46;;;;;;;19.15;10.55;;;24.90;68.40;;;;;;4386862;28;10000234;-58
2022/05/08 11:46:17;;;;;;;19.38;10.85;;;25.00;66.80;;;;;;5090919;28;20545;-61
2022/05/08 11:48:46;;;;;;;18.13;11.05;;;24.60;65.50;;;;;;5066524;28;20142;-61
2022/05/08 11:51:13;;;;;;;20.40;12.60;;;25.20;66.60;;;;;;5072464;28;20020;-61
2022/05/08 11:53:39;;;;;;;22.83;14.30;;;26.30;64.30;;;;;;5054086;28;20055;-62
2022/05/08 11:56:20;;;;;;;23.15;12.35;;;26.30;63.30;;;;;;5072417;28;20021;-64
2022/05/08 11:58:47;;;;;;;19.75;12.18;;;27.00;60.90;;;;;;5071948;28;20101;-63
2022/05/08 12:01:28;;;;;;;21.80;13.27;;;27.60;61.60;;;;;;5072264;28;20051;-64
2022/05/08 12:03:56;;;;;;;21.45;14.48;;;28.60;59.70;;;;;;5072052;28;20147;-68
2022/05/08 12:06:22;;;;;;;21.40;13.23;;;28.60;57.80;;;;;;5072167;28;20145;-66
2022/05/08 12:08:48;;;;;;;21.80;13.57;;;28.90;56.50;;;;;;5071593;28;20029;-65
2022/05/08 12:11:33;;;;;;;17.52;11.05;;;28.30;56.30;;;;;;5071485;28;20055;-66
2022/05/08 12:14:03;;;;;;;20.58;14.65;;;28.00;54.70;;;;;;4707295;28;9999680;-67
2022/05/08 12:16:31;;;;;;;23.50;15.07;;;27.80;54.70;;;;;;5089343;28;20161;-64
2022/05/08 12:19:17;;;;;;;25.63;18.43;;;27.90;53.00;;;;;;5089632;28;20475;-65
2022/05/08 12:21:45;;;;;;;22.27;12.23;;;27.90;54.00;;;;;;5089200;28;20840;-64
2022/05/08 12:24:17;;;;;;;18.70;11.48;;;28.50;54.20;;;;;;5071368;28;20115;-67
2022/05/08 12:26:43;;;;;;;17.63;11.45;;;28.80;53.90;;;;;;5103541;22;20050;-65
2022/05/08 12:29:16;;;;;;;18.52;10.48;;;28.80;54.50;;;;;;5069619;28;20108;-66
2022/05/08 12:31:43;;;;;;;21.90;11.80;;;27.90;53.90;;;;;;5070456;28;20443;-67
2022/05/08 12:34:11;;;;;;;17.73;9.80;;;28.70;52.70;;;;;;5051830;28;20111;-66
2022/05/08 12:36:40;;;;;;;;;;;27.90;54.30;;;;;;5075382;28;20032;-66
2022/05/08 12:39:07;;;;;;;18.98;10.45;;;28.70;54.00;;;;;;5091272;28;19986;-64
2022/05/08 12:41:33;;;;;;;18.60;11.35;;;29.40;52.80;;;;;;5091629;28;20514;-64
2022/05/08 12:44:02;;;;;;;18.95;11.07;;;28.70;51.70;;;;;;5081838;28;20059;-65
2022/05/08 12:46:28;;;;;;;18.25;10.60;;;28.50;52.60;;;;;;5071904;28;20108;-65
2022/05/08 12:49:00;;;;;;;16.95;10.32;;;27.90;52.70;;;;;;4717936;28;9999720;-64
2022/05/08 12:51:26;;;;;;;21.38;11.55;;;28.60;51.50;;;;;;5071280;28;20028;-64
2022/05/08 12:53:52;;;;;;;19.45;11.10;;;28.00;51.10;;;;;;5089387;28;20662;-64
2022/05/08 12:56:19;;;;;;;20.33;10.85;;;27.90;52.20;;;;;;5089455;28;20047;-64
2022/05/08 13:01:29;;;;;;;20.77;10.60;;;28.90;52.60;;;;;;5079998;28;20070;-65
2022/05/08 13:03:55;;;;;;;19.38;13.25;;;29.30;51.50;;;;;;5077863;28;20032;-65
2022/05/08 13:06:21;;;;;;;20.05;10.98;;;29.90;51.30;;;;;;5079425;28;20307;-65